createdAt,value
2022-08-19T00:00:28.532Z,63.82
2022-08-19T00:02:56.558Z,63.75
2022-08-19T00:05:24.640Z,63.81
2022-08-19T00:07:52.641Z,63.83
2022-08-19T00:10:20.850Z,63.76
2022-08-19T00:12:48.893Z,63.76
2022-08-19T00:15:19.824Z,63.83
2022-08-19T00:17:47.837Z,63.84
2022-08-19T00:20:18.909Z,63.86
2022-08-19T00:22:47.079Z,63.77
2022-08-19T00:25:15.202Z,63.76
2022-08-19T00:27:43.830Z,63.93
2022-08-19T00:30:13.168Z,63.68
2022-08-19T00:32:42.554Z,63.49
2022-08-19T00:35:11.677Z,63.49
2022-08-19T00:37:44.137Z,63.38
2022-08-19T00:40:13.908Z,63.34
2022-08-19T00:42:41.984Z,63.16
2022-08-19T00:45:15.221Z,63.31
2022-08-19T00:47:44.774Z,63.18
2022-08-19T00:50:13.260Z,63.08
2022-08-19T00:52:46.550Z,62.96
2022-08-19T00:55:15.912Z,63.00
2022-08-19T00:57:46.321Z,62.91
2022-08-19T01:00:15.747Z,62.85
2022-08-19T01:02:45.173Z,62.71
2022-08-19T01:05:16.003Z,62.61
2022-08-19T01:07:44.866Z,62.62
2022-08-19T01:10:14.676Z,62.61
2022-08-19T01:12:42.822Z,62.91
2022-08-19T01:15:12.444Z,62.78
2022-08-19T01:17:41.068Z,62.81
2022-08-19T01:20:11.897Z,62.86
2022-08-19T01:22:43.764Z,62.59
2022-08-19T01:25:15.041Z,62.60
2022-08-19T01:27:44.429Z,62.41
2022-08-19T01:30:14.626Z,62.27
2022-08-19T01:32:42.928Z,62.08
2022-08-19T01:35:11.093Z,61.91
2022-08-19T01:37:48.100Z,61.61
2022-08-19T01:40:16.485Z,61.48
2022-08-19T01:42:44.559Z,61.40
2022-08-19T01:45:12.860Z,61.36
2022-08-19T01:47:40.886Z,61.25
2022-08-19T01:50:09.762Z,60.98
2022-08-19T01:52:37.988Z,61.09
2022-08-19T01:55:10.449Z,60.93
2022-08-19T01:57:38.545Z,60.88
2022-08-19T02:00:07.700Z,60.85
2022-08-19T02:02:35.811Z,60.57
2022-08-19T02:05:03.810Z,60.56
2022-08-19T02:07:31.840Z,60.51
2022-08-19T02:09:59.821Z,60.24
2022-08-19T02:12:32.468Z,60.36
2022-08-19T02:15:02.035Z,60.08
2022-08-19T02:17:30.116Z,60.09
2022-08-19T02:19:58.189Z,59.94
2022-08-19T02:22:26.513Z,59.95
2022-08-19T02:24:54.488Z,59.95
2022-08-19T02:27:22.484Z,59.74
2022-08-19T02:29:52.069Z,59.88
2022-08-19T02:32:20.540Z,59.56
2022-08-19T02:34:48.798Z,59.55
2022-08-19T02:37:30.568Z,59.60
2022-08-19T02:40:03.374Z,59.53
2022-08-19T02:42:41.770Z,59.40
2022-08-19T02:45:12.048Z,59.56
2022-08-19T02:47:40.068Z,59.38
2022-08-19T02:50:08.537Z,59.02
2022-08-19T02:52:36.630Z,59.02
2022-08-19T02:55:04.908Z,58.80
2022-08-19T02:57:33.522Z,58.52
2022-08-19T03:00:02.416Z,58.43
2022-08-19T03:02:31.816Z,58.24
2022-08-19T03:04:59.800Z,58.10
2022-08-19T03:07:27.848Z,57.86
2022-08-19T03:09:55.823Z,57.36
2022-08-19T03:12:23.897Z,57.61
2022-08-19T03:14:52.081Z,57.50
2022-08-19T03:17:20.052Z,57.21
2022-08-19T03:19:49.411Z,57.37
2022-08-19T03:22:17.429Z,56.95
2022-08-19T03:24:45.373Z,56.85
2022-08-19T03:27:13.388Z,56.94
2022-08-19T03:29:43.851Z,56.85
2022-08-19T03:32:27.235Z,56.43
2022-08-19T03:35:01.679Z,56.40
2022-08-19T03:37:29.695Z,56.32
2022-08-19T03:39:57.697Z,56.05
2022-08-19T03:42:32.110Z,55.81
2022-08-19T03:45:01.719Z,56.01
2022-08-19T03:47:29.692Z,55.75
2022-08-19T03:49:57.743Z,55.48
2022-08-19T03:52:27.124Z,55.49
2022-08-19T03:54:55.132Z,55.76
2022-08-19T03:57:24.422Z,55.47
2022-08-19T03:59:55.865Z,55.54
2022-08-19T04:02:40.615Z,55.55
2022-08-19T04:05:09.623Z,55.74
2022-08-19T04:07:39.194Z,55.38
2022-08-19T04:10:07.669Z,55.32
2022-08-19T04:12:38.913Z,55.16
2022-08-19T04:15:08.866Z,55.09
2022-08-19T04:17:36.870Z,54.97
2022-08-19T04:20:07.019Z,54.98
2022-08-19T04:22:35.245Z,54.91
2022-08-19T04:25:04.834Z,55.20
2022-08-19T04:27:34.400Z,54.81
2022-08-19T04:30:02.385Z,54.91
2022-08-19T04:32:32.917Z,55.17
2022-08-19T04:35:02.590Z,54.93
2022-08-19T04:37:44.581Z,54.94
2022-08-19T04:40:31.697Z,55.14
2022-08-19T04:42:59.698Z,54.76
2022-08-19T04:45:27.736Z,55.10
2022-08-19T04:48:26.894Z,54.98
2022-08-19T04:50:46.318Z,55.01
2022-08-19T04:53:14.265Z,54.93
2022-08-19T04:55:44.483Z,55.16
2022-08-19T04:58:12.541Z,54.81
2022-08-19T05:00:41.580Z,54.74
2022-08-19T05:03:09.685Z,55.03
2022-08-19T05:05:44.583Z,54.85
2022-08-19T05:08:14.208Z,54.77
2022-08-19T05:10:45.574Z,54.86
2022-08-19T05:13:13.611Z,54.78
2022-08-19T05:15:41.653Z,55.00
2022-08-19T05:18:26.724Z,55.11
2022-08-19T05:21:12.469Z,54.95
2022-08-19T05:23:40.476Z,54.92
2022-08-19T05:26:12.017Z,54.78
2022-08-19T05:28:39.975Z,55.22
2022-08-19T05:31:08.157Z,55.15
2022-08-19T05:33:36.365Z,54.82
2022-08-19T05:36:05.553Z,55.07
2022-08-19T05:38:33.521Z,55.17
2022-08-19T05:41:01.499Z,55.35
2022-08-19T05:43:30.940Z,55.04
2022-08-19T05:45:59.331Z,55.41
2022-08-19T05:48:27.536Z,55.51
2022-08-19T05:50:55.588Z,55.33
2022-08-19T05:53:23.543Z,55.40
2022-08-19T05:55:51.528Z,55.43
2022-08-19T05:58:19.550Z,55.44
2022-08-19T06:00:53.493Z,55.72
2022-08-19T06:03:21.514Z,55.64
2022-08-19T06:05:52.050Z,55.42
2022-08-19T06:08:33.820Z,55.17
2022-08-19T06:11:14.669Z,55.17
2022-08-19T06:13:42.721Z,54.87
2022-08-19T06:16:12.123Z,54.70
2022-08-19T06:18:40.205Z,54.43
2022-08-19T06:21:08.242Z,54.01
2022-08-19T06:23:36.615Z,53.93
2022-08-19T06:26:05.256Z,53.87
2022-08-19T06:28:33.973Z,53.88
2022-08-19T06:31:07.368Z,53.80
2022-08-19T06:33:36.779Z,53.90
2022-08-19T06:36:05.305Z,53.68
2022-08-19T06:38:34.358Z,53.76
2022-08-19T06:41:07.437Z,53.86
2022-08-19T06:43:37.140Z,53.74
2022-08-19T06:46:14.577Z,53.87
2022-08-19T06:48:45.138Z,53.51
2022-08-19T06:51:16.672Z,53.60
2022-08-19T06:53:47.552Z,53.44
2022-08-19T06:56:16.193Z,53.70
2022-08-19T06:58:44.175Z,53.63
2022-08-19T07:01:12.232Z,53.54
2022-08-19T07:03:40.782Z,53.50
2022-08-19T07:06:26.596Z,53.43
2022-08-19T07:09:00.270Z,53.33
2022-08-19T07:11:28.873Z,53.14
2022-08-19T07:13:57.737Z,53.04
2022-08-19T07:16:29.441Z,52.87
2022-08-19T07:18:58.181Z,52.59
2022-08-19T07:21:29.466Z,52.48
2022-08-19T07:23:58.075Z,52.29
2022-08-19T07:26:27.992Z,52.21
2022-08-19T07:28:56.504Z,52.05
2022-08-19T07:31:25.325Z,52.04
2022-08-19T07:33:56.267Z,51.83
2022-08-19T07:36:29.669Z,51.78
2022-08-19T07:38:57.685Z,51.53
2022-08-19T07:41:27.348Z,51.71
2022-08-19T07:43:55.418Z,51.80
2022-08-19T07:46:23.508Z,51.70
2022-08-19T07:48:51.664Z,51.35
2022-08-19T07:51:35.992Z,51.21
2022-08-19T07:54:06.229Z,51.41
2022-08-19T07:56:34.201Z,51.32
2022-08-19T07:59:02.337Z,51.14
2022-08-19T08:01:30.510Z,51.22
2022-08-19T08:04:16.127Z,51.05
2022-08-19T08:07:02.233Z,50.91
2022-08-19T08:09:35.153Z,50.69
2022-08-19T08:12:30.725Z,50.71
2022-08-19T08:14:58.176Z,50.17
2022-08-19T08:17:31.163Z,49.88
2022-08-19T08:20:16.345Z,49.81
2022-08-19T08:23:03.259Z,49.61
2022-08-19T08:25:34.342Z,49.82
2022-08-19T08:28:03.558Z,49.70
2022-08-19T08:30:33.408Z,49.45
2022-08-19T08:33:02.654Z,49.27
2022-08-19T08:35:30.820Z,49.13
2022-08-19T08:37:59.001Z,48.78
2022-08-19T08:40:30.277Z,48.79
2022-08-19T08:45:42.504Z,48.42
2022-08-19T08:48:23.892Z,48.26
2022-08-19T08:50:53.643Z,48.47
2022-08-19T08:53:29.108Z,48.37
2022-08-19T08:55:57.948Z,48.65
2022-08-19T08:58:30.290Z,48.04
2022-08-19T09:00:59.482Z,47.75
2022-08-19T09:03:28.348Z,48.17
2022-08-19T09:06:03.185Z,48.17
2022-08-19T09:08:38.241Z,48.07
2022-08-19T09:11:09.291Z,47.81
2022-08-19T09:13:44.140Z,47.97
2022-08-19T09:16:15.101Z,47.73
2022-08-19T09:18:44.041Z,47.85
2022-08-19T09:21:12.125Z,47.80
2022-08-19T09:23:40.193Z,47.67
2022-08-19T09:26:14.548Z,47.82
2022-08-19T09:28:48.329Z,47.65
2022-08-19T09:31:19.187Z,47.05
2022-08-19T09:33:47.268Z,47.22
2022-08-19T09:36:21.782Z,46.83
2022-08-19T09:38:59.237Z,46.77
2022-08-19T09:41:28.737Z,46.50
2022-08-19T09:43:59.710Z,46.28
2022-08-19T09:46:29.008Z,46.29
2022-08-19T09:48:59.452Z,46.02
2022-08-19T09:51:35.044Z,46.10
2022-08-19T09:54:04.530Z,45.89
2022-08-19T09:56:33.974Z,45.74
2022-08-19T09:59:04.382Z,45.47
2022-08-19T10:01:33.754Z,45.06
2022-08-19T10:04:06.382Z,44.70
2022-08-19T10:06:46.419Z,44.00
2022-08-19T10:09:14.997Z,43.93
2022-08-19T10:11:51.157Z,43.99
2022-08-19T10:14:24.734Z,43.40
2022-08-19T10:16:53.123Z,43.61
2022-08-19T10:19:25.290Z,43.27
2022-08-19T10:21:54.219Z,43.55
2022-08-19T10:24:25.333Z,43.46
2022-08-19T10:26:57.033Z,43.45
2022-08-19T10:29:32.832Z,43.42
2022-08-19T10:32:02.807Z,42.98
2022-08-19T10:34:31.582Z,43.07
2022-08-19T10:37:01.868Z,43.27
2022-08-19T10:39:31.435Z,42.83
2022-08-19T10:42:00.865Z,42.73
2022-08-19T10:44:32.090Z,42.99
2022-08-19T10:47:00.999Z,42.55
2022-08-19T10:49:29.201Z,42.74
2022-08-19T10:52:18.580Z,42.65
2022-08-19T10:55:08.253Z,42.37
2022-08-19T10:57:59.483Z,42.69
2022-08-19T11:00:26.781Z,41.99
2022-08-19T11:02:54.797Z,41.08
2022-08-19T11:05:24.184Z,41.47
2022-08-19T11:07:53.024Z,40.71
2022-08-19T11:10:22.015Z,41.04
2022-08-19T11:12:55.115Z,42.11
2022-08-19T11:15:23.290Z,43.03
2022-08-19T11:17:55.246Z,43.83
2022-08-19T11:20:24.624Z,43.79
2022-08-19T11:22:53.719Z,44.21
2022-08-19T11:25:21.874Z,44.17
2022-08-19T11:27:52.091Z,44.04
2022-08-19T11:30:20.243Z,44.45
2022-08-19T11:32:49.642Z,45.27
2022-08-19T11:35:21.051Z,45.49
2022-08-19T11:37:49.130Z,45.70
2022-08-19T11:40:17.412Z,46.25
2022-08-19T11:42:57.714Z,45.94
2022-08-19T11:45:25.922Z,44.69
2022-08-19T11:47:54.200Z,43.90
2022-08-19T11:50:24.573Z,42.75
2022-08-19T11:52:52.666Z,41.46
2022-08-19T11:55:20.905Z,40.93
2022-08-19T11:57:48.958Z,41.47
2022-08-19T12:00:17.488Z,40.24
2022-08-19T12:02:45.606Z,39.34
2022-08-19T12:05:13.732Z,38.31
2022-08-19T12:07:44.693Z,38.09
2022-08-19T12:10:12.975Z,38.28
2022-08-19T12:12:43.436Z,37.56
2022-08-19T12:15:13.165Z,36.73
2022-08-19T12:17:41.232Z,35.76
2022-08-19T12:20:11.370Z,36.23
2022-08-19T12:22:40.324Z,35.92
2022-08-19T12:25:10.504Z,35.89
2022-08-19T12:27:40.730Z,35.40
2022-08-19T12:30:11.909Z,34.89
2022-08-19T12:32:40.120Z,34.34
2022-08-19T12:35:09.093Z,34.03
2022-08-19T12:37:37.282Z,33.47
2022-08-19T12:40:06.339Z,34.17
2022-08-19T12:42:37.036Z,34.37
2022-08-19T12:45:06.507Z,34.28
2022-08-19T12:47:34.669Z,35.09
2022-08-19T12:50:07.027Z,35.06
2022-08-19T12:52:35.086Z,35.52
2022-08-19T12:55:03.153Z,35.89
2022-08-19T12:57:33.895Z,36.46
2022-08-19T13:00:07.117Z,36.48
2022-08-19T13:02:38.840Z,36.48
2022-08-19T13:05:09.349Z,36.02
2022-08-19T13:07:38.260Z,35.68
2022-08-19T13:10:07.713Z,35.64
2022-08-19T13:12:35.890Z,36.42
2022-08-19T13:15:10.998Z,36.72
2022-08-19T13:17:39.730Z,36.05
2022-08-19T13:20:09.016Z,35.79
2022-08-19T13:22:37.440Z,35.65
2022-08-19T13:25:06.378Z,35.45
2022-08-19T13:27:34.531Z,35.16
2022-08-19T13:30:20.193Z,35.24
2022-08-19T13:33:07.020Z,34.82
2022-08-19T13:35:35.048Z,34.49
2022-08-19T13:38:11.963Z,34.55
2022-08-19T13:40:41.320Z,35.42
2022-08-19T13:43:17.597Z,35.64
2022-08-19T13:45:51.540Z,35.22
2022-08-19T13:48:20.931Z,34.88
2022-08-19T13:50:49.197Z,34.66
2022-08-19T13:53:17.348Z,35.29
2022-08-19T13:55:45.833Z,35.35
2022-08-19T13:58:14.424Z,35.25
2022-08-19T14:00:43.390Z,33.93
2022-08-19T14:03:11.439Z,33.56
2022-08-19T14:05:40.791Z,33.04
2022-08-19T14:08:08.869Z,32.62
2022-08-19T14:10:36.881Z,32.25
2022-08-19T14:13:05.629Z,32.31
2022-08-19T14:15:33.763Z,32.50
2022-08-19T14:18:02.015Z,31.79
2022-08-19T14:20:30.030Z,31.67
2022-08-19T14:23:00.435Z,32.16
2022-08-19T14:25:29.924Z,31.75
2022-08-19T14:27:57.924Z,32.25
2022-08-19T14:30:28.657Z,31.88
2022-08-19T14:32:56.963Z,31.62
2022-08-19T14:35:25.086Z,32.05
2022-08-19T14:37:56.435Z,31.46
2022-08-19T14:40:28.261Z,31.10
2022-08-19T14:43:00.424Z,31.19
2022-08-19T14:45:28.723Z,31.23
2022-08-19T14:47:56.821Z,31.68
2022-08-19T14:50:24.857Z,32.43
2022-08-19T14:53:00.774Z,32.40
2022-08-19T14:55:30.171Z,32.52
2022-08-19T14:57:58.333Z,31.88
2022-08-19T15:00:27.950Z,32.08
2022-08-19T15:02:56.560Z,32.08
2022-08-19T15:05:24.682Z,31.67
2022-08-19T15:07:52.763Z,31.72
2022-08-19T15:10:20.949Z,31.30
2022-08-19T15:12:51.877Z,30.51
2022-08-19T15:15:20.135Z,30.10
2022-08-19T15:17:48.549Z,30.51
2022-08-19T15:20:17.590Z,30.88
2022-08-19T15:22:45.600Z,31.06
2022-08-19T15:25:15.137Z,30.46
2022-08-19T15:27:43.689Z,30.34
2022-08-19T15:30:13.989Z,29.98
2022-08-19T15:32:44.252Z,30.41
2022-08-19T15:35:15.346Z,30.30
2022-08-19T15:37:43.355Z,30.22
2022-08-19T15:40:12.360Z,30.33
2022-08-19T15:42:42.540Z,30.21
2022-08-19T15:45:13.104Z,30.68
2022-08-19T15:47:41.112Z,31.15
2022-08-19T15:50:10.533Z,31.54
2022-08-19T15:52:49.220Z,32.45
2022-08-19T15:55:32.699Z,33.10
2022-08-19T15:58:20.555Z,33.36
2022-08-19T16:01:16.314Z,34.04
2022-08-19T16:04:03.111Z,34.63
2022-08-19T16:06:31.880Z,34.68
2022-08-19T16:09:01.987Z,35.22
2022-08-19T16:11:32.364Z,35.61
2022-08-19T16:14:00.971Z,36.03
2022-08-19T16:16:33.823Z,36.68
2022-08-19T16:19:03.867Z,37.31
2022-08-19T16:21:33.482Z,37.58
2022-08-19T16:24:02.168Z,37.83
2022-08-19T16:26:31.600Z,38.48
2022-08-19T16:28:59.863Z,38.99
2022-08-19T16:31:28.004Z,39.98
2022-08-19T16:33:57.474Z,40.83
2022-08-19T16:36:25.624Z,41.75
2022-08-19T16:38:54.570Z,42.26
2022-08-19T16:41:23.110Z,42.78
2022-08-19T16:43:54.606Z,42.74
2022-08-19T16:46:22.789Z,42.24
2022-08-19T16:48:51.014Z,41.96
2022-08-19T16:51:20.404Z,41.51
2022-08-19T16:53:49.075Z,40.12
2022-08-19T16:56:17.115Z,39.70
2022-08-19T16:58:45.073Z,39.05
2022-08-19T17:01:13.807Z,39.15
2022-08-19T17:03:41.825Z,38.87
2022-08-19T17:06:15.925Z,38.52
2022-08-19T17:08:50.102Z,36.56
2022-08-19T17:11:19.345Z,35.12
2022-08-19T17:13:48.323Z,34.58
2022-08-19T17:16:16.859Z,33.96
2022-08-19T17:18:44.951Z,33.33
2022-08-19T17:21:13.528Z,32.86
2022-08-19T17:23:43.578Z,32.19
2022-08-19T17:26:16.931Z,32.33
2022-08-19T17:28:47.289Z,33.39
2022-08-19T17:31:15.473Z,35.11
2022-08-19T17:33:48.161Z,36.19
2022-08-19T17:36:17.457Z,36.98
2022-08-19T17:38:45.818Z,37.53
2022-08-19T17:41:15.275Z,38.78
2022-08-19T17:43:44.273Z,39.46
2022-08-19T17:46:17.859Z,40.17
2022-08-19T17:48:51.933Z,40.23
2022-08-19T17:51:22.349Z,40.73
2022-08-19T17:53:51.502Z,40.71
2022-08-19T17:56:20.884Z,41.14
2022-08-19T17:58:59.580Z,41.49
2022-08-19T18:01:31.452Z,42.24
2022-08-19T18:04:12.182Z,43.23
2022-08-19T18:06:41.757Z,43.59
2022-08-19T18:09:14.949Z,43.56
2022-08-19T18:11:44.893Z,43.87
2022-08-19T18:14:20.548Z,44.09
2022-08-19T18:16:48.509Z,44.54
2022-08-19T18:19:16.485Z,45.31
2022-08-19T18:21:44.528Z,45.80
2022-08-19T18:24:12.689Z,45.71
2022-08-19T18:26:40.712Z,45.91
2022-08-19T18:29:10.104Z,46.16
2022-08-19T18:31:38.687Z,46.32
2022-08-19T18:34:10.044Z,46.49
2022-08-19T18:36:53.557Z,46.52
2022-08-19T18:39:39.254Z,46.36
2022-08-19T18:42:32.660Z,45.90
2022-08-19T18:45:19.526Z,45.76
2022-08-19T18:48:04.801Z,45.57
2022-08-19T18:50:32.891Z,45.42
2022-08-19T18:53:01.804Z,45.29
2022-08-19T18:55:29.947Z,45.12
2022-08-19T18:57:57.891Z,45.10
2022-08-19T19:00:27.343Z,45.05
2022-08-19T19:02:55.688Z,44.97
2022-08-19T19:05:24.411Z,44.90
2022-08-19T19:07:53.175Z,44.86
2022-08-19T19:10:21.417Z,44.87
2022-08-19T19:12:50.315Z,44.79
2022-08-19T19:15:18.885Z,44.75
2022-08-19T19:17:48.344Z,44.61
2022-08-19T19:20:16.542Z,44.76
2022-08-19T19:22:44.527Z,44.96
2022-08-19T19:25:12.517Z,45.13
2022-08-19T19:27:40.983Z,45.15
2022-08-19T19:30:09.878Z,45.50
2022-08-19T19:32:39.157Z,45.49
2022-08-19T19:35:10.645Z,45.64
2022-08-19T19:37:38.789Z,45.77
2022-08-19T19:40:07.559Z,46.08
2022-08-19T19:42:35.600Z,46.07
2022-08-19T19:45:03.934Z,46.21
2022-08-19T19:47:31.927Z,46.29
2022-08-19T19:50:16.162Z,46.27
2022-08-19T19:52:46.757Z,46.32
2022-08-19T19:55:18.095Z,46.37
2022-08-19T19:57:46.511Z,46.55
2022-08-19T20:00:16.961Z,46.69
2022-08-19T20:02:49.266Z,46.68
2022-08-19T20:05:21.229Z,46.88
2022-08-19T20:08:08.248Z,46.83
2022-08-19T20:10:36.596Z,46.91
2022-08-19T20:13:04.922Z,46.99
2022-08-19T20:15:33.205Z,46.98
2022-08-19T20:18:02.381Z,46.91
2022-08-19T20:20:31.612Z,46.75
2022-08-19T20:23:01.169Z,46.75
2022-08-19T20:25:29.156Z,46.86
2022-08-19T20:27:57.406Z,46.66
2022-08-19T20:30:25.656Z,46.67
2022-08-19T20:32:56.558Z,46.65
2022-08-19T20:35:24.702Z,46.78
2022-08-19T20:37:57.997Z,46.74
2022-08-19T20:40:27.775Z,46.76
2022-08-19T20:42:56.460Z,46.80
2022-08-19T20:45:33.623Z,46.90
2022-08-19T20:48:03.266Z,46.92
2022-08-19T20:50:31.770Z,47.00
2022-08-19T20:53:00.690Z,47.19
2022-08-19T20:55:30.593Z,47.40
2022-08-19T20:57:58.735Z,47.40
2022-08-19T21:00:26.793Z,47.49
2022-08-19T21:02:54.796Z,47.46
2022-08-19T21:05:26.169Z,47.67
2022-08-19T21:07:56.707Z,47.83
2022-08-19T21:10:26.124Z,48.04
2022-08-19T21:12:55.478Z,48.12
2022-08-19T21:15:24.621Z,48.13
2022-08-19T21:17:52.663Z,48.34
2022-08-19T21:20:20.878Z,48.41
2022-08-19T21:22:48.856Z,48.50
2022-08-19T21:25:16.960Z,48.50
2022-08-19T21:27:44.978Z,48.63
2022-08-19T21:30:15.209Z,48.58
2022-08-19T21:32:43.354Z,48.48
2022-08-19T21:35:11.388Z,48.51
2022-08-19T21:37:39.428Z,48.45
2022-08-19T21:40:08.462Z,48.41
2022-08-19T21:42:37.759Z,48.37
2022-08-19T21:45:06.788Z,48.45
2022-08-19T21:47:36.207Z,48.41
2022-08-19T21:50:04.441Z,48.47
2022-08-19T21:52:32.515Z,48.45
2022-08-19T21:55:00.524Z,48.31
2022-08-19T21:57:28.468Z,48.63
2022-08-19T21:59:56.466Z,48.62
2022-08-19T22:02:24.515Z,48.65
2022-08-19T22:04:53.942Z,48.74
2022-08-19T22:07:22.540Z,48.82
2022-08-19T22:09:51.552Z,49.04
2022-08-19T22:12:24.289Z,49.06
2022-08-19T22:14:52.597Z,49.26
2022-08-19T22:17:20.943Z,49.18
2022-08-19T22:19:49.059Z,49.35
2022-08-19T22:22:24.121Z,49.26
2022-08-19T22:24:52.333Z,49.36
2022-08-19T22:27:20.552Z,49.38
2022-08-19T22:29:52.387Z,49.43
2022-08-19T22:32:28.106Z,49.25
2022-08-19T22:34:58.897Z,49.25
2022-08-19T22:37:28.891Z,49.04
2022-08-19T22:39:56.948Z,49.14
2022-08-19T22:42:25.371Z,49.18
2022-08-19T22:44:59.905Z,49.15
2022-08-19T22:47:30.180Z,49.21
2022-08-19T22:50:02.143Z,49.24
2022-08-19T22:52:31.614Z,49.39
2022-08-19T22:55:01.168Z,49.13
2022-08-19T22:57:29.586Z,49.15
2022-08-19T22:59:58.790Z,49.28
2022-08-19T23:02:31.371Z,49.12
2022-08-19T23:05:02.182Z,49.10
2022-08-19T23:07:31.628Z,49.07
2022-08-19T23:09:59.616Z,48.99
2022-08-19T23:12:28.893Z,48.97
2022-08-19T23:14:56.913Z,49.21
2022-08-19T23:17:24.913Z,49.15
2022-08-19T23:19:53.517Z,49.31
2022-08-19T23:22:24.949Z,49.50
2022-08-19T23:24:55.911Z,49.45
2022-08-19T23:27:41.753Z,49.69
2022-08-19T23:30:29.599Z,49.95
2022-08-19T23:32:58.269Z,50.17
2022-08-19T23:35:26.483Z,50.26
2022-08-19T23:37:54.684Z,51.03
2022-08-19T23:40:24.253Z,51.03
2022-08-19T23:42:52.239Z,51.38
2022-08-19T23:45:23.842Z,51.24
2022-08-19T23:47:53.423Z,51.31
2022-08-19T23:50:21.776Z,51.87
2022-08-19T23:52:51.147Z,51.96
2022-08-19T23:55:19.135Z,51.92
2022-08-19T23:57:48.613Z,52.17
